createdAt,value
2018-07-22T00:00:32.771Z,54.10
2018-07-22T00:03:03.668Z,54.80
2018-07-22T00:05:34.765Z,54.20
2018-07-22T00:08:05.304Z,54.40
2018-07-22T00:10:36.799Z,54.40
2018-07-22T00:13:07.357Z,54.40
2018-07-22T00:15:38.980Z,54.60
2018-07-22T00:18:09.510Z,54.70
2018-07-22T00:20:40.619Z,54.80
2018-07-22T00:23:11.178Z,55.00
2018-07-22T00:25:42.465Z,55.20
2018-07-22T00:28:13.656Z,55.30
2018-07-22T00:30:44.794Z,55.20
2018-07-22T00:33:16.309Z,55.30
2018-07-22T00:35:47.261Z,55.60
2018-07-22T00:38:17.837Z,55.60
2018-07-22T00:40:49.026Z,55.80
2018-07-22T00:43:19.892Z,55.80
2018-07-22T00:45:51.633Z,55.80
2018-07-22T00:48:22.284Z,55.80
2018-07-22T00:50:53.565Z,55.80
2018-07-22T00:53:24.323Z,56.00
2018-07-22T00:58:25.434Z,55.90
2018-07-22T01:00:56.363Z,56.10
2018-07-22T01:03:26.614Z,56.00
2018-07-22T01:05:58.013Z,56.30
2018-07-22T01:08:28.890Z,56.70
2018-07-22T01:11:01.304Z,56.80
2018-07-22T01:13:32.135Z,56.70
2018-07-22T01:18:33.310Z,57.10
2018-07-22T01:21:04.083Z,57.00
2018-07-22T01:23:34.573Z,57.20
2018-07-22T01:26:05.725Z,57.10
2018-07-22T01:28:36.603Z,57.30
2018-07-22T01:31:07.743Z,57.20
2018-07-22T01:33:38.180Z,57.40
2018-07-22T01:36:09.172Z,57.40
2018-07-22T01:38:39.763Z,57.30
2018-07-22T01:41:11.523Z,57.50
2018-07-22T01:43:41.962Z,57.70
2018-07-22T01:46:13.408Z,57.80
2018-07-22T01:51:14.097Z,57.70
2018-07-22T01:53:44.443Z,58.10
2018-07-22T01:56:15.739Z,58.00
2018-07-22T01:58:46.263Z,57.70
2018-07-22T02:01:17.253Z,58.20
2018-07-22T02:03:47.610Z,58.10
2018-07-22T02:06:18.586Z,57.80
2018-07-22T02:08:48.994Z,57.90
2018-07-22T02:11:19.413Z,58.00
2018-07-22T02:13:50.806Z,58.20
2018-07-22T02:16:21.818Z,58.40
2018-07-22T02:18:52.103Z,58.50
2018-07-22T02:21:23.146Z,58.40
2018-07-22T02:23:54.114Z,58.50
2018-07-22T02:26:26.091Z,58.80
2018-07-22T02:28:57.229Z,58.70
2018-07-22T02:31:28.140Z,58.70
2018-07-22T02:33:59.253Z,58.80
2018-07-22T02:36:30.115Z,59.20
2018-07-22T02:41:31.444Z,59.80
2018-07-22T02:44:02.120Z,58.80
2018-07-22T02:49:03.805Z,59.30
2018-07-22T02:51:34.651Z,59.60
2018-07-22T02:54:05.787Z,59.70
2018-07-22T02:56:36.414Z,59.80
2018-07-22T03:01:38.726Z,60.30
2018-07-22T03:04:10.196Z,60.30
2018-07-22T03:07:23.269Z,60.00
2018-07-22T03:09:53.659Z,60.60
2018-07-22T03:12:25.096Z,60.10
2018-07-22T03:14:55.538Z,60.20
2018-07-22T03:17:26.783Z,60.50
2018-07-22T03:19:57.206Z,60.90
2018-07-22T03:22:28.599Z,60.90
2018-07-22T03:27:30.448Z,60.60
2018-07-22T03:30:01.280Z,61.00
2018-07-22T03:32:32.648Z,60.50
2018-07-22T03:35:03.930Z,60.80
2018-07-22T03:37:35.359Z,61.10
2018-07-22T03:40:06.045Z,60.80
2018-07-22T03:42:37.007Z,61.00
2018-07-22T03:47:37.346Z,60.80
2018-07-22T03:50:07.835Z,60.80
2018-07-22T03:52:38.614Z,61.30
2018-07-22T03:55:09.373Z,61.40
2018-07-22T03:57:40.158Z,61.70
2018-07-22T04:00:11.007Z,61.50
2018-07-22T04:02:42.004Z,61.80
2018-07-22T04:05:12.963Z,61.80
2018-07-22T04:07:44.111Z,61.70
2018-07-22T04:10:14.933Z,61.80
2018-07-22T04:12:45.901Z,62.30
2018-07-22T04:15:16.792Z,62.20
2018-07-22T04:17:47.143Z,62.00
2018-07-22T04:20:17.799Z,62.00
2018-07-22T04:22:49.588Z,62.00
2018-07-22T04:25:21.359Z,62.10
2018-07-22T04:27:51.994Z,62.20
2018-07-22T04:30:22.983Z,61.90
2018-07-22T04:32:54.975Z,61.80
2018-07-22T04:35:25.571Z,61.90
2018-07-22T04:37:56.754Z,61.50
2018-07-22T04:40:27.331Z,61.50
2018-07-22T04:42:58.047Z,61.40
2018-07-22T04:45:29.047Z,61.00
2018-07-22T04:47:59.643Z,61.00
2018-07-22T04:50:30.456Z,61.00
2018-07-22T04:53:01.820Z,60.90
2018-07-22T04:55:33.067Z,60.90
2018-07-22T04:58:04.296Z,60.60
2018-07-22T05:00:35.226Z,60.50
2018-07-22T05:03:06.087Z,60.30
2018-07-22T05:05:36.801Z,60.30
2018-07-22T05:08:07.987Z,60.50
2018-07-22T05:10:38.630Z,60.20
2018-07-22T05:13:09.447Z,60.20
2018-07-22T05:15:39.893Z,60.20
2018-07-22T05:18:10.866Z,60.20
2018-07-22T05:20:41.529Z,60.50
2018-07-22T05:23:13.493Z,60.90
2018-07-22T05:25:44.245Z,60.20
2018-07-22T05:30:44.866Z,60.00
2018-07-22T05:33:15.442Z,60.00
2018-07-22T05:35:46.367Z,59.70
2018-07-22T05:38:16.676Z,60.00
2018-07-22T05:43:17.427Z,59.90
2018-07-22T05:45:48.167Z,59.80
2018-07-22T05:48:18.429Z,59.80
2018-07-22T05:50:49.419Z,60.00
2018-07-22T05:53:19.690Z,60.30
2018-07-22T05:55:50.431Z,60.10
2018-07-22T05:58:21.262Z,60.20
2018-07-22T06:00:52.011Z,60.00
2018-07-22T06:03:23.779Z,59.90
2018-07-22T06:05:54.831Z,59.60
2018-07-22T06:08:25.304Z,59.80
2018-07-22T06:10:56.014Z,59.60
2018-07-22T06:13:26.981Z,59.40
2018-07-22T06:15:58.077Z,59.40
2018-07-22T06:18:37.325Z,59.50
2018-07-22T06:21:08.339Z,59.30
2018-07-22T06:23:39.221Z,59.20
2018-07-22T06:26:10.161Z,59.10
2018-07-22T06:28:41.189Z,59.00
2018-07-22T06:31:12.251Z,59.20
2018-07-22T06:33:43.298Z,58.70
2018-07-22T06:36:14.066Z,59.30
2018-07-22T06:38:44.750Z,58.50
2018-07-22T06:41:16.565Z,58.70
2018-07-22T06:43:47.859Z,58.70
2018-07-22T06:46:18.352Z,58.50
2018-07-22T06:51:19.122Z,58.50
2018-07-22T06:53:49.787Z,58.40
2018-07-22T06:58:50.739Z,58.50
2018-07-22T07:01:35.939Z,58.60
2018-07-22T07:04:07.191Z,58.40
2018-07-22T07:06:38.093Z,58.00
2018-07-22T07:09:12.027Z,57.90
2018-07-22T07:11:42.588Z,57.80
2018-07-22T07:14:31.221Z,57.90
2018-07-22T07:17:30.543Z,57.80
2018-07-22T07:20:01.701Z,57.90
2018-07-22T07:25:51.484Z,57.40
2018-07-22T07:30:51.950Z,57.20
2018-07-22T07:33:22.779Z,57.30
2018-07-22T07:35:53.793Z,57.20
2018-07-22T07:38:24.375Z,57.20
2018-07-22T07:51:03.522Z,56.50
2018-07-22T07:58:34.955Z,56.10
2018-07-22T08:01:05.918Z,56.20
2018-07-22T08:03:37.077Z,55.80
2018-07-22T08:06:14.350Z,55.90
2018-07-22T08:09:03.821Z,56.40
2018-07-22T08:15:03.809Z,56.00
2018-07-22T08:17:34.734Z,55.90
2018-07-22T08:20:06.274Z,56.30
2018-07-22T08:22:45.581Z,55.30
2018-07-22T08:25:33.922Z,55.20
2018-07-22T08:28:57.894Z,54.80
2018-07-22T08:31:28.428Z,54.70
2018-07-22T08:34:00.841Z,54.90
2018-07-22T08:36:32.040Z,54.60
2018-07-22T08:41:50.077Z,53.70
2018-07-22T08:44:20.635Z,53.70
2018-07-22T08:46:52.170Z,53.90
2018-07-22T08:49:28.584Z,53.80
2018-07-22T08:52:00.170Z,54.10
2018-07-22T08:55:06.134Z,54.20
2018-07-22T08:57:37.347Z,54.40
2018-07-22T09:00:08.150Z,54.50
2018-07-22T09:02:39.029Z,54.00
2018-07-22T09:05:09.593Z,54.10
2018-07-22T09:07:40.557Z,54.30
2018-07-22T09:10:11.309Z,53.90
2018-07-22T09:12:42.236Z,53.40
2018-07-22T09:15:12.812Z,53.20
2018-07-22T09:17:44.208Z,53.20
2018-07-22T09:20:22.003Z,53.00
2018-07-22T09:25:22.819Z,52.60
2018-07-22T09:28:02.964Z,53.00
2018-07-22T09:30:34.017Z,52.80
2018-07-22T09:33:05.362Z,52.70
2018-07-22T09:35:35.922Z,52.50
2018-07-22T09:38:07.028Z,52.80
2018-07-22T09:40:46.763Z,53.00
2018-07-22T09:43:19.860Z,52.70
2018-07-22T09:45:50.331Z,52.60
2018-07-22T09:48:21.267Z,52.70
2018-07-22T09:50:54.732Z,52.50
2018-07-22T09:53:26.121Z,52.10
2018-07-22T09:55:56.661Z,52.60
2018-07-22T09:58:35.865Z,52.60
2018-07-22T10:04:16.850Z,51.60
2018-07-22T10:06:47.610Z,51.60
2018-07-22T10:15:01.240Z,50.00
2018-07-22T10:17:44.130Z,49.60
2018-07-22T10:20:15.776Z,49.60
2018-07-22T10:25:18.137Z,48.70
2018-07-22T10:27:48.554Z,48.50
2018-07-22T10:30:27.485Z,48.90
2018-07-22T10:33:03.250Z,48.50
2018-07-22T10:38:55.151Z,49.70
2018-07-22T10:41:27.132Z,47.80
2018-07-22T10:43:57.470Z,48.30
2018-07-22T10:46:27.383Z,47.60
2018-07-22T10:48:59.931Z,47.50
2018-07-22T10:51:29.961Z,47.00
2018-07-22T10:54:00.535Z,47.80
2018-07-22T10:56:30.535Z,46.60
2018-07-22T10:59:00.794Z,46.30
2018-07-22T11:01:31.131Z,46.30
2018-07-22T11:04:01.858Z,46.30
2018-07-22T11:06:32.461Z,46.40
2018-07-22T11:09:02.935Z,47.20
2018-07-22T11:11:33.299Z,47.50
2018-07-22T11:16:36.808Z,46.20
2018-07-22T11:19:08.449Z,46.30
2018-07-22T11:21:38.733Z,45.90
2018-07-22T11:24:09.144Z,45.90
2018-07-22T11:26:41.089Z,45.40
2018-07-22T11:31:41.007Z,45.90
2018-07-22T11:34:11.401Z,47.00
2018-07-22T11:36:41.692Z,46.60
2018-07-22T11:39:12.507Z,44.70
2018-07-22T11:41:45.349Z,44.60
2018-07-22T11:44:17.097Z,44.50
2018-07-22T11:46:48.948Z,45.80
2018-07-22T11:51:49.481Z,44.60
2018-07-22T11:54:19.646Z,44.50
2018-07-22T11:56:49.726Z,45.60
2018-07-22T11:59:19.924Z,44.40
2018-07-22T12:01:50.298Z,44.60
2018-07-22T12:04:22.338Z,44.60
2018-07-22T12:06:52.765Z,43.50
2018-07-22T12:09:22.955Z,43.20
2018-07-22T12:11:53.246Z,43.80
2018-07-22T12:14:23.957Z,44.10
2018-07-22T12:16:54.221Z,43.30
2018-07-22T12:21:54.504Z,43.70
2018-07-22T12:24:24.774Z,43.50
2018-07-22T12:26:58.191Z,42.70
2018-07-22T12:29:28.454Z,43.10
2018-07-22T12:31:58.811Z,41.70
2018-07-22T12:39:29.502Z,41.80
2018-07-22T12:41:59.649Z,40.60
2018-07-22T12:44:31.531Z,40.00
2018-07-22T12:47:12.132Z,40.70
2018-07-22T12:50:00.465Z,40.30
2018-07-22T12:52:31.390Z,41.90
2018-07-22T12:55:01.480Z,41.50
2018-07-22T12:57:37.523Z,40.70
2018-07-22T13:00:08.417Z,41.10
2018-07-22T13:05:09.354Z,40.10
2018-07-22T13:07:40.266Z,39.60
2018-07-22T13:10:11.515Z,40.80
2018-07-22T13:12:42.062Z,39.80
2018-07-22T13:15:12.511Z,40.00
2018-07-22T13:17:44.045Z,39.70
2018-07-22T13:20:14.387Z,40.60
2018-07-22T13:22:44.879Z,40.00
2018-07-22T13:25:15.524Z,40.10
2018-07-22T13:27:46.189Z,38.90
2018-07-22T13:30:16.754Z,39.60
2018-07-22T13:32:47.060Z,39.90
2018-07-22T13:35:17.665Z,40.30
2018-07-22T13:37:47.973Z,40.80
2018-07-22T13:40:19.350Z,39.40
2018-07-22T13:42:49.771Z,40.50
2018-07-22T13:45:19.727Z,39.80
2018-07-22T13:47:50.082Z,39.00
2018-07-22T13:53:02.817Z,38.70
2018-07-22T13:55:34.059Z,40.20
2018-07-22T13:58:05.168Z,38.60
2018-07-22T14:00:37.054Z,38.50
2018-07-22T14:03:07.926Z,38.60
2018-07-22T14:05:39.370Z,38.40
2018-07-22T14:08:09.619Z,38.90
2018-07-22T14:10:41.697Z,38.10
2018-07-22T14:13:11.774Z,38.60
2018-07-22T14:15:42.463Z,38.80
2018-07-22T14:18:13.306Z,38.60
2018-07-22T14:20:44.540Z,39.30
2018-07-22T14:23:16.092Z,40.10
2018-07-22T14:25:46.217Z,40.60
2018-07-22T14:28:16.287Z,40.20
2018-07-22T14:30:47.617Z,40.80
2018-07-22T14:33:17.605Z,41.20
2018-07-22T14:35:48.282Z,41.60
2018-07-22T14:38:18.472Z,42.70
2018-07-22T14:40:49.292Z,43.30
2018-07-22T14:43:20.044Z,43.50
2018-07-22T14:45:50.919Z,43.20
2018-07-22T14:48:21.454Z,43.20
2018-07-22T14:50:51.882Z,43.70
2018-07-22T14:55:54.144Z,44.30
2018-07-22T14:58:27.504Z,44.20
2018-07-22T15:01:02.943Z,44.80
2018-07-22T15:03:34.192Z,45.40
2018-07-22T15:06:04.408Z,44.80
2018-07-22T15:08:34.666Z,44.50
2018-07-22T15:13:42.216Z,44.80
2018-07-22T15:16:13.146Z,44.50
2018-07-22T15:18:43.386Z,44.30
2018-07-22T15:21:13.661Z,45.00
2018-07-22T15:23:43.528Z,42.50
2018-07-22T15:26:14.233Z,42.00
2018-07-22T15:28:44.242Z,41.20
2018-07-22T15:31:14.546Z,42.10
2018-07-22T15:33:45.384Z,42.70
2018-07-22T15:38:45.893Z,40.80
2018-07-22T15:41:16.499Z,41.70
2018-07-22T15:43:47.504Z,41.50
2018-07-22T15:46:18.002Z,41.60
2018-07-22T15:48:48.762Z,41.30
2018-07-22T15:53:49.071Z,41.00
2018-07-22T15:56:19.906Z,41.20
2018-07-22T15:58:50.312Z,41.40
2018-07-22T16:01:21.276Z,41.80
2018-07-22T16:03:52.560Z,41.40
2018-07-22T16:06:23.216Z,41.50
2018-07-22T16:08:58.907Z,41.60
2018-07-22T16:13:59.501Z,42.40
2018-07-22T16:16:43.207Z,41.70
2018-07-22T16:19:13.978Z,41.30
2018-07-22T16:21:44.818Z,41.60
2018-07-22T16:24:14.990Z,42.30
2018-07-22T16:29:15.362Z,41.50
2018-07-22T16:31:45.295Z,42.20
2018-07-22T16:34:24.216Z,41.70
2018-07-22T16:36:55.102Z,40.90
2018-07-22T16:39:25.065Z,40.90
2018-07-22T16:41:55.335Z,40.90
2018-07-22T16:46:56.451Z,42.00
2018-07-22T16:49:26.648Z,41.50
2018-07-22T16:51:57.133Z,41.50
2018-07-22T16:54:27.760Z,41.50
2018-07-22T16:56:58.024Z,41.80
2018-07-22T16:59:28.182Z,41.70
2018-07-22T17:01:58.853Z,42.00
2018-07-22T17:07:03.088Z,42.20
2018-07-22T17:09:33.716Z,42.90
2018-07-22T17:12:04.373Z,43.60
2018-07-22T17:14:34.564Z,43.70
2018-07-22T17:19:34.972Z,45.30
2018-07-22T17:22:05.163Z,44.70
2018-07-22T17:24:35.243Z,45.00
2018-07-22T17:27:05.534Z,45.10
2018-07-22T17:29:35.875Z,45.10
2018-07-22T17:32:06.091Z,45.60
2018-07-22T17:34:38.162Z,46.00
2018-07-22T17:37:08.417Z,46.20
2018-07-22T17:39:42.553Z,46.40
2018-07-22T17:42:13.811Z,46.70
2018-07-22T17:44:44.091Z,47.00
2018-07-22T17:47:14.545Z,46.80
2018-07-22T17:49:45.142Z,46.50
2018-07-22T17:52:15.267Z,46.50
2018-07-22T17:54:46.050Z,46.50
2018-07-22T17:59:45.529Z,46.10
2018-07-22T18:02:16.578Z,46.20
2018-07-22T18:07:16.842Z,46.60
2018-07-22T18:09:47.439Z,46.60
2018-07-22T18:12:17.875Z,46.20
2018-07-22T18:14:47.879Z,46.00
2018-07-22T18:17:18.253Z,45.90
2018-07-22T18:19:48.729Z,46.40
2018-07-22T18:22:18.999Z,46.80
2018-07-22T18:24:53.125Z,46.80
2018-07-22T18:27:23.500Z,46.60
2018-07-22T18:29:53.820Z,46.50
2018-07-22T18:32:24.224Z,46.70
2018-07-22T18:34:54.705Z,47.10
2018-07-22T18:37:25.290Z,47.10
2018-07-22T18:39:55.918Z,48.10
2018-07-22T18:42:26.667Z,47.90
2018-07-22T18:44:58.924Z,47.30
2018-07-22T18:47:29.511Z,47.40
2018-07-22T18:50:00.040Z,48.00
2018-07-22T18:52:32.883Z,48.00
2018-07-22T18:55:08.431Z,47.90
2018-07-22T18:57:42.163Z,47.80
2018-07-22T19:00:12.233Z,48.40
2018-07-22T19:02:43.297Z,48.50
2018-07-22T19:05:13.757Z,48.40
2018-07-22T19:07:44.113Z,48.10
2018-07-22T19:10:15.057Z,48.70
2018-07-22T19:12:45.418Z,48.30
2018-07-22T19:15:15.254Z,48.10
2018-07-22T19:17:46.006Z,48.80
2018-07-22T19:20:25.857Z,49.00
2018-07-22T19:22:56.451Z,48.80
2018-07-22T19:25:26.650Z,49.40
2018-07-22T19:28:10.420Z,49.20
2018-07-22T19:30:49.152Z,49.40
2018-07-22T19:35:50.802Z,49.40
2018-07-22T19:38:23.609Z,49.80
2018-07-22T19:40:53.971Z,49.70
2018-07-22T19:43:24.089Z,49.50
2018-07-22T19:45:54.338Z,49.30
2018-07-22T19:48:24.689Z,49.70
2018-07-22T19:50:55.630Z,49.60
2018-07-22T19:53:26.972Z,49.60
2018-07-22T19:55:57.016Z,50.00
2018-07-22T19:58:27.170Z,50.10
2018-07-22T20:00:58.513Z,50.50
2018-07-22T20:05:59.025Z,50.30
2018-07-22T20:08:29.621Z,50.60
2018-07-22T20:11:00.607Z,50.50
2018-07-22T20:13:30.818Z,50.40
2018-07-22T20:16:03.177Z,50.20
2018-07-22T20:21:03.378Z,50.50
2018-07-22T20:23:33.924Z,50.40
2018-07-22T20:26:04.245Z,51.00
2018-07-22T20:28:35.504Z,51.10
2018-07-22T20:33:36.136Z,51.00
2018-07-22T20:36:06.443Z,50.70
2018-07-22T20:38:41.760Z,50.30
2018-07-22T20:49:37.715Z,50.40
2018-07-22T20:52:35.167Z,50.90
2018-07-22T20:55:06.106Z,50.70
2018-07-22T20:57:37.383Z,50.70
2018-07-22T21:00:08.227Z,51.10
2018-07-22T21:02:40.149Z,51.30
2018-07-22T21:05:11.462Z,51.60
2018-07-22T21:07:44.075Z,51.60
2018-07-22T21:10:14.760Z,51.80
2018-07-22T21:12:56.252Z,52.00
2018-07-22T21:15:28.486Z,52.30
2018-07-22T21:17:59.203Z,52.10
2018-07-22T21:20:30.110Z,52.10
2018-07-22T21:25:30.512Z,52.50
2018-07-22T21:28:01.136Z,52.70
2018-07-22T21:30:31.952Z,52.90
2018-07-22T21:33:02.723Z,53.10
2018-07-22T21:35:33.725Z,53.30
2018-07-22T21:38:04.238Z,53.30
2018-07-22T21:40:34.757Z,53.40
2018-07-22T21:43:06.157Z,53.40
2018-07-22T21:45:37.553Z,53.50
2018-07-22T21:48:09.700Z,53.60
2018-07-22T21:50:50.606Z,53.80
2018-07-22T21:58:21.331Z,54.20
2018-07-22T22:00:52.329Z,54.30
2018-07-22T22:05:52.463Z,54.30
2018-07-22T22:08:24.480Z,54.30
2018-07-22T22:10:54.877Z,54.30
2018-07-22T22:13:25.409Z,54.30
2018-07-22T22:15:56.565Z,54.50
2018-07-22T22:18:27.159Z,54.80
2018-07-22T22:20:58.724Z,55.10
2018-07-22T22:23:29.718Z,55.30
2018-07-22T22:26:00.127Z,55.30
2018-07-22T22:28:30.966Z,55.40
2018-07-22T22:31:01.545Z,55.40
2018-07-22T22:36:02.144Z,55.60
2018-07-22T22:38:33.864Z,55.60
2018-07-22T22:41:04.334Z,55.80
2018-07-22T22:43:35.278Z,56.00
2018-07-22T22:46:05.800Z,55.90
2018-07-22T22:48:36.767Z,56.10
2018-07-22T22:51:08.033Z,56.10
2018-07-22T22:53:39.060Z,56.30
2018-07-22T22:56:09.631Z,56.50
2018-07-22T22:58:51.564Z,56.60
2018-07-22T23:01:22.072Z,56.80
2018-07-22T23:03:52.210Z,56.80
2018-07-22T23:06:22.840Z,56.70
2018-07-22T23:09:22.145Z,56.70
2018-07-22T23:11:52.669Z,56.90
2018-07-22T23:16:52.637Z,57.30
2018-07-22T23:19:23.325Z,57.10
2018-07-22T23:21:54.768Z,57.00
2018-07-22T23:24:25.381Z,57.30
2018-07-22T23:26:56.344Z,57.40
2018-07-22T23:29:26.841Z,57.50
2018-07-22T23:31:59.000Z,57.60
2018-07-22T23:34:29.730Z,57.50
2018-07-22T23:37:00.433Z,57.20
2018-07-22T23:49:32.716Z,58.20
2018-07-22T23:52:03.330Z,58.30
2018-07-22T23:54:34.731Z,58.00
2018-07-22T23:57:05.880Z,58.20
2018-07-22T23:59:36.604Z,58.40
